Time;durP1;ratioP1;P1;durP2;ratioP2;P2;SDS_P1;SDS_P2;PMS_P1;PMS_P2;Temp;Humidity;BMP_temperature;BMP_pressure;BME280_temperature;BME280_humidity;BME280_pressure;Samples;Min_cycle;Max_cycle;Signal;HPM_P1;HPM_P2
2021/12/22 00:01:38;;;;;;;21.63;15.45;;;-2.50;99.90;;;;;;5126485;27;20044;-71
2021/12/22 00:04:04;;;;;;;23.42;16.17;;;-2.50;99.90;;;;;;5148259;27;20043;-71
2021/12/22 00:06:32;;;;;;;22.63;16.98;;;-2.50;99.90;;;;;;5146988;27;20108;-71
2021/12/22 00:08:59;;;;;;;20.65;15.38;;;-2.50;99.90;;;;;;5122246;27;20039;-71
2021/12/22 00:11:25;;;;;;;21.75;15.90;;;-2.50;99.90;;;;;;5115729;27;20538;-71
2021/12/22 00:13:51;;;;;;;19.88;15.40;;;-2.60;99.90;;;;;;5124250;27;20043;-71
2021/12/22 00:16:17;;;;;;;20.83;16.50;;;-2.60;99.90;;;;;;5108515;27;20082;-71
2021/12/22 00:18:43;;;;;;;23.52;17.20;;;-2.60;99.90;;;;;;5128206;27;20441;-71
2021/12/22 00:21:10;;;;;;;22.35;16.95;;;-2.60;99.90;;;;;;5129639;27;20067;-71
2021/12/22 00:23:36;;;;;;;22.95;17.83;;;-2.60;99.90;;;;;;5122847;27;20043;-71
2021/12/22 00:26:03;;;;;;;22.60;16.48;;;-2.60;99.90;;;;;;5122822;27;20044;-71
2021/12/22 00:28:29;;;;;;;22.20;16.35;;;-2.60;99.90;;;;;;5116249;27;20032;-72
2021/12/22 00:30:55;;;;;;;23.10;16.77;;;-2.60;99.90;;;;;;5126605;27;20049;-71
2021/12/22 00:33:21;;;;;;;21.70;16.15;;;-2.60;99.90;;;;;;5112254;27;20498;-71
2021/12/22 00:35:47;;;;;;;21.25;16.00;;;-2.60;99.90;;;;;;5141639;27;20089;-71
2021/12/22 00:38:15;;;;;;;23.70;17.77;;;-2.60;99.90;;;;;;5123921;27;20444;-71
2021/12/22 00:40:42;;;;;;;24.80;18.40;;;-2.60;99.90;;;;;;5121440;27;20135;-71
2021/12/22 00:43:08;;;;;;;27.55;19.70;;;-2.60;99.90;;;;;;5127188;27;20039;-71
2021/12/22 00:45:35;;;;;;;23.58;17.42;;;-2.60;99.90;;;;;;5113336;27;20044;-72
2021/12/22 00:48:03;;;;;;;26.63;18.42;;;-2.60;99.90;;;;;;5127076;27;20082;-71
2021/12/22 00:50:29;;;;;;;28.15;19.73;;;-2.60;99.90;;;;;;5119092;27;20048;-71
2021/12/22 00:52:55;;;;;;;27.50;18.27;;;-2.60;99.90;;;;;;5123297;27;20102;-72
2021/12/22 00:55:21;;;;;;;28.38;19.55;;;-2.60;99.90;;;;;;5123769;27;20471;-71
2021/12/22 00:57:49;;;;;;;26.73;18.67;;;-2.60;99.90;;;;;;5119134;27;20045;-71
2021/12/22 01:00:17;;;;;;;29.33;19.67;;;-2.70;99.90;;;;;;5153102;27;20493;-71
2021/12/22 01:02:44;;;;;;;30.67;20.52;;;-2.70;99.90;;;;;;5116300;27;20039;-71
2021/12/22 01:05:12;;;;;;;33.00;21.13;;;-2.70;99.90;;;;;;5124825;27;20039;-72
2021/12/22 01:07:39;;;;;;;31.25;20.95;;;-2.70;99.90;;;;;;5125727;27;20629;-71
2021/12/22 01:10:06;;;;;;;35.40;22.52;;;-2.70;99.90;;;;;;5127744;27;20047;-71
2021/12/22 01:12:32;;;;;;;33.75;21.95;;;-2.70;99.90;;;;;;5126890;27;20482;-71
2021/12/22 01:14:58;;;;;;;33.80;22.60;;;-2.70;99.90;;;;;;5124129;27;20054;-72
2021/12/22 01:17:23;;;;;;;33.72;22.15;;;-2.70;99.90;;;;;;5125427;27;20063;-72
2021/12/22 01:20:05;;;;;;;37.45;22.92;;;-2.70;99.90;;;;;;5119024;27;20039;-71
2021/12/22 01:25:07;;;;;;;33.80;22.42;;;-2.80;99.90;;;;;;5121923;27;20087;-71
2021/12/22 01:27:38;;;;;;;36.35;23.02;;;-2.80;99.90;;;;;;5118345;27;20047;-72
2021/12/22 01:30:10;;;;;;;35.63;23.70;;;-2.80;99.90;;;;;;5120775;27;20457;-71
2021/12/22 01:32:36;;;;;;;38.15;24.27;;;-2.80;99.90;;;;;;5126123;27;20055;-72
2021/12/22 01:35:03;;;;;;;37.30;22.65;;;-2.80;99.90;;;;;;5125873;27;20462;-71
2021/12/22 01:37:28;;;;;;;34.45;22.58;;;-2.80;99.90;;;;;;5126158;27;20074;-72
2021/12/22 01:39:54;;;;;;;37.10;23.55;;;-2.80;99.90;;;;;;5117866;27;20118;-71
2021/12/22 01:42:20;;;;;;;35.75;22.25;;;-2.80;99.90;;;;;;5121848;27;20099;-71
2021/12/22 01:50:34;;;;;;;40.83;23.75;;;-2.90;99.90;;;;;;5118671;27;20462;-72
2021/12/22 01:53:06;;;;;;;44.08;25.85;;;-2.90;99.90;;;;;;5123242;27;20051;-71
2021/12/22 01:55:36;;;;;;;43.08;25.33;;;-2.90;99.90;;;;;;5125395;27;20047;-71
2021/12/22 01:58:06;;;;;;;45.97;25.67;;;-2.90;99.90;;;;;;5125855;28;20050;-71
2021/12/22 02:00:32;;;;;;;42.45;25.38;;;-2.90;99.90;;;;;;5123311;28;20096;-71
2021/12/22 02:02:58;;;;;;;42.65;24.42;;;-2.90;99.90;;;;;;5159505;27;20042;-71
2021/12/22 02:05:24;;;;;;;45.17;25.10;;;-2.90;99.90;;;;;;5123692;27;20479;-71
2021/12/22 02:07:55;;;;;;;42.25;24.95;;;-2.90;99.90;;;;;;5114511;27;20499;-71
2021/12/22 02:10:35;;;;;;;42.67;26.65;;;-2.90;99.90;;;;;;5125518;27;20043;-71
2021/12/22 02:13:02;;;;;;;41.72;23.88;;;-2.90;99.90;;;;;;5134133;27;20456;-71
2021/12/22 02:15:33;;;;;;;44.92;25.27;;;-2.90;99.90;;;;;;5122259;27;20035;-71
2021/12/22 02:18:01;;;;;;;41.75;24.98;;;-2.90;99.90;;;;;;5122926;27;20461;-71
2021/12/22 02:20:27;;;;;;;43.35;25.15;;;-3.00;99.90;;;;;;5127117;27;20036;-71
2021/12/22 02:22:57;;;;;;;43.70;24.92;;;-3.00;99.90;;;;;;5119667;27;20050;-71
2021/12/22 02:25:31;;;;;;;42.42;25.13;;;-3.00;99.90;;;;;;5131151;27;20465;-71
2021/12/22 02:27:57;;;;;;;41.35;24.20;;;-3.00;99.90;;;;;;5127394;27;20043;-71
2021/12/22 02:30:26;;;;;;;37.60;22.40;;;-3.00;99.90;;;;;;5128245;27;20054;-71
2021/12/22 02:35:28;;;;;;;36.22;22.27;;;-3.00;99.90;;;;;;5131793;27;20050;-71
2021/12/22 02:37:54;;;;;;;38.90;22.92;;;-3.00;99.90;;;;;;5128795;27;20082;-71
2021/12/22 02:40:26;;;;;;;34.90;22.55;;;-3.00;99.90;;;;;;5130016;27;20047;-72
2021/12/22 02:43:03;;;;;;;36.17;22.75;;;-3.10;99.90;;;;;;5156922;27;20053;-71
2021/12/22 02:45:28;;;;;;;34.58;21.67;;;-3.10;99.90;;;;;;5121794;27;20074;-71
2021/12/22 02:47:54;;;;;;;34.58;22.27;;;-3.10;99.90;;;;;;5156045;27;20534;-71
2021/12/22 02:50:19;;;;;;;36.45;22.65;;;-3.10;99.90;;;;;;5115784;27;20058;-71
2021/12/22 02:53:01;;;;;;;34.35;22.25;;;-3.10;99.90;;;;;;5123760;27;20035;-71
2021/12/22 02:55:32;;;;;;;30.52;20.95;;;-3.10;99.90;;;;;;5119205;27;20043;-71
2021/12/22 02:58:02;;;;;;;33.05;20.95;;;-3.10;99.90;;;;;;5121775;27;20046;-71
2021/12/22 03:00:45;;;;;;;35.03;22.17;;;-3.10;99.90;;;;;;5120432;27;20062;-71
2021/12/22 03:03:27;;;;;;;30.10;20.67;;;-3.10;99.90;;;;;;5132151;27;20051;-71
2021/12/22 03:05:52;;;;;;;31.98;20.40;;;-3.10;99.90;;;;;;5128992;27;20049;-71
2021/12/22 03:08:18;;;;;;;32.13;20.38;;;-3.10;99.90;;;;;;5165179;27;20413;-71
2021/12/22 03:10:44;;;;;;;33.20;21.10;;;-3.10;99.90;;;;;;5131260;27;20448;-71
2021/12/22 03:13:09;;;;;;;28.23;20.90;;;-3.20;99.90;;;;;;5158615;27;20039;-71
2021/12/22 03:15:35;;;;;;;29.90;20.17;;;-3.10;99.90;;;;;;5114595;27;20522;-72
2021/12/22 03:18:04;;;;;;;30.65;20.58;;;-3.10;99.90;;;;;;5127649;27;20050;-71
2021/12/22 03:20:30;;;;;;;30.17;20.80;;;-3.20;99.90;;;;;;5121093;27;20047;-71
2021/12/22 03:22:56;;;;;;;31.10;18.85;;;-3.10;99.90;;;;;;5123986;27;20436;-71
2021/12/22 03:25:26;;;;;;;28.95;19.88;;;-3.10;99.90;;;;;;5124368;27;20091;-72
2021/12/22 03:27:53;;;;;;;30.23;21.00;;;-3.20;99.90;;;;;;5125187;27;20509;-71
2021/12/22 03:30:24;;;;;;;32.88;21.73;;;-3.20;99.90;;;;;;5118172;27;20047;-71
2021/12/22 03:32:50;;;;;;;29.85;20.85;;;-3.20;99.90;;;;;;5120962;27;20486;-71
2021/12/22 03:35:19;;;;;;;32.30;20.25;;;-3.20;99.90;;;;;;5110719;27;20478;-71
2021/12/22 03:37:49;;;;;;;31.38;20.88;;;-3.20;99.90;;;;;;5122985;27;20050;-71
2021/12/22 03:40:15;;;;;;;30.58;19.92;;;-3.20;99.90;;;;;;5123988;27;20044;-71
2021/12/22 03:42:41;;;;;;;30.63;19.42;;;-3.30;99.90;;;;;;5124913;27;20055;-71
2021/12/22 03:45:07;;;;;;;29.20;20.55;;;-3.20;99.90;;;;;;5125047;27;20042;-71
2021/12/22 03:47:33;;;;;;;29.02;20.70;;;-3.20;99.90;;;;;;5123900;27;20104;-71
2021/12/22 03:49:59;;;;;;;31.40;20.92;;;-3.30;99.90;;;;;;5123698;27;20363;-71
2021/12/22 03:52:24;;;;;;;31.20;20.77;;;-3.30;99.90;;;;;;5144543;27;20047;-71
2021/12/22 03:54:57;;;;;;;30.50;20.23;;;-3.30;99.90;;;;;;5109280;27;20057;-72
2021/12/22 03:57:27;;;;;;;32.28;21.33;;;-3.30;99.90;;;;;;5127730;27;20035;-70
2021/12/22 03:59:53;;;;;;;29.75;20.45;;;-3.30;99.90;;;;;;5126856;27;20069;-71
2021/12/22 04:02:21;;;;;;;31.42;20.48;;;-3.30;99.90;;;;;;5148343;27;20043;-71
2021/12/22 04:04:48;;;;;;;32.30;20.60;;;-3.30;99.90;;;;;;5119316;27;20047;-71
2021/12/22 04:07:15;;;;;;;32.58;19.77;;;-3.30;99.90;;;;;;5118639;27;20918;-71
2021/12/22 04:09:41;;;;;;;33.87;20.83;;;-3.30;99.90;;;;;;5125920;27;20052;-71
2021/12/22 04:12:07;;;;;;;31.52;21.13;;;-3.30;99.90;;;;;;5114111;27;20289;-72
2021/12/22 04:14:33;;;;;;;31.67;20.40;;;-3.30;99.90;;;;;;5120819;27;20427;-72
2021/12/22 04:16:59;;;;;;;29.65;19.95;;;-3.30;99.90;;;;;;5124293;27;20054;-71
2021/12/22 04:19:25;;;;;;;29.35;20.17;;;-3.30;99.90;;;;;;5122699;27;20047;-72
2021/12/22 04:21:51;;;;;;;31.70;20.98;;;-3.30;99.90;;;;;;5158892;27;20057;-72
2021/12/22 04:24:17;;;;;;;30.38;20.48;;;-3.30;99.90;;;;;;5116573;27;20046;-71
2021/12/22 04:26:43;;;;;;;33.58;20.65;;;-3.30;99.90;;;;;;5120656;27;20043;-72
2021/12/22 04:29:12;;;;;;;31.85;20.35;;;-3.40;99.90;;;;;;5153774;27;20131;-72
2021/12/22 04:31:39;;;;;;;32.17;20.33;;;-3.40;99.90;;;;;;5115274;27;20058;-72
2021/12/22 04:34:08;;;;;;;29.70;21.17;;;-3.40;99.90;;;;;;5113373;27;20551;-72
2021/12/22 04:36:38;;;;;;;28.52;19.35;;;-3.40;99.90;;;;;;5126016;27;20043;-72
2021/12/22 04:39:06;;;;;;;31.27;19.85;;;-3.40;99.90;;;;;;5118650;27;20062;-72
2021/12/22 04:41:32;;;;;;;28.85;19.40;;;-3.40;99.90;;;;;;5108480;28;20059;-72
2021/12/22 04:43:57;;;;;;;32.15;19.88;;;-3.40;99.90;;;;;;5122059;27;20071;-72
2021/12/22 04:46:23;;;;;;;27.90;18.45;;;-3.40;99.90;;;;;;5117595;27;20078;-71
2021/12/22 04:48:49;;;;;;;29.13;18.48;;;-3.40;99.90;;;;;;5151973;27;20099;-72
2021/12/22 04:51:24;;;;;;;28.08;18.85;;;-3.40;99.90;;;;;;5137048;27;20510;-72
2021/12/22 04:54:16;;;;;;;27.65;18.52;;;-3.40;99.90;;;;;;5125495;27;20042;-72
2021/12/22 04:56:42;;;;;;;26.15;18.48;;;-3.30;99.90;;;;;;5107305;27;20058;-72
2021/12/22 04:59:08;;;;;;;28.02;18.20;;;-3.30;99.90;;;;;;5124414;27;20474;-71
2021/12/22 05:01:34;;;;;;;25.38;17.98;;;-3.40;99.90;;;;;;5121030;27;20869;-72
2021/12/22 05:03:59;;;;;;;25.13;17.33;;;-3.40;99.90;;;;;;5120008;27;20070;-72
2021/12/22 05:06:25;;;;;;;25.65;16.63;;;-3.40;99.90;;;;;;5110677;27;20082;-71
2021/12/22 05:08:52;;;;;;;24.48;17.73;;;-3.40;99.90;;;;;;5120515;27;20043;-72
2021/12/22 05:11:17;;;;;;;25.50;18.10;;;-3.40;99.90;;;;;;5148466;27;20084;-72
2021/12/22 05:13:43;;;;;;;23.90;16.75;;;-3.40;99.90;;;;;;5126440;27;20047;-71
2021/12/22 05:16:16;;;;;;;26.40;17.35;;;-3.40;99.90;;;;;;5117628;27;20042;-72
2021/12/22 05:21:17;;;;;;;25.63;17.88;;;-3.40;99.90;;;;;;5125113;27;20043;-71
2021/12/22 05:23:42;;;;;;;27.02;18.25;;;-3.40;99.90;;;;;;5123679;27;20053;-72
2021/12/22 05:26:08;;;;;;;27.08;18.50;;;-3.40;99.90;;;;;;5109418;27;20036;-71
2021/12/22 05:28:33;;;;;;;28.35;18.27;;;-3.40;99.90;;;;;;5118903;27;20074;-72
2021/12/22 05:30:59;;;;;;;25.58;17.83;;;-3.40;99.90;;;;;;5144201;27;20034;-72
2021/12/22 05:33:25;;;;;;;27.50;17.83;;;-3.40;99.90;;;;;;5109013;27;20093;-71
2021/12/22 05:35:50;;;;;;;24.65;17.23;;;-3.40;99.90;;;;;;5140350;27;20035;-72
2021/12/22 05:38:17;;;;;;;27.20;17.85;;;-3.50;99.90;;;;;;5150131;27;20082;-71
2021/12/22 05:40:43;;;;;;;28.90;17.00;;;-3.40;99.90;;;;;;5110547;27;20116;-71
2021/12/22 05:43:09;;;;;;;26.67;17.30;;;-3.40;99.90;;;;;;5152140;27;20541;-71
2021/12/22 05:45:34;;;;;;;28.67;19.00;;;-3.40;99.90;;;;;;5116788;27;20047;-71
2021/12/22 05:48:00;;;;;;;29.85;19.17;;;-3.40;99.90;;;;;;5124099;27;20589;-72
2021/12/22 05:50:25;;;;;;;26.80;18.08;;;-3.40;99.90;;;;;;5118952;27;20126;-72
2021/12/22 05:52:51;;;;;;;31.45;19.30;;;-3.40;99.90;;;;;;5123835;27;20084;-72
2021/12/22 05:55:17;;;;;;;29.33;18.25;;;-3.40;99.90;;;;;;5155413;27;20126;-71
2021/12/22 05:57:44;;;;;;;28.00;18.48;;;-3.50;99.90;;;;;;5148683;27;20650;-72
2021/12/22 06:00:11;;;;;;;27.58;19.92;;;-3.40;99.90;;;;;;5123398;27;20490;-70
2021/12/22 06:02:36;;;;;;;29.10;18.65;;;-3.50;99.90;;;;;;5139750;27;20120;-71
2021/12/22 06:05:02;;;;;;;25.98;17.33;;;-3.50;99.90;;;;;;5108184;28;20490;-71
2021/12/22 06:07:28;;;;;;;30.45;19.80;;;-3.40;99.90;;;;;;5110282;28;20904;-71
2021/12/22 06:09:53;;;;;;;29.17;19.15;;;-3.40;99.90;;;;;;5152624;27;20058;-72
2021/12/22 06:12:19;;;;;;;31.08;19.58;;;-3.40;99.90;;;;;;5161787;27;20059;-71
2021/12/22 06:14:45;;;;;;;30.83;19.92;;;-3.40;99.90;;;;;;5157714;27;20055;-72
2021/12/22 06:17:10;;;;;;;29.95;19.55;;;-3.40;99.90;;;;;;5126020;27;20066;-72
2021/12/22 06:19:36;;;;;;;29.25;19.55;;;-3.40;99.90;;;;;;5143172;27;20055;-71
2021/12/22 06:22:02;;;;;;;29.85;18.85;;;-3.40;99.90;;;;;;5123843;27;20027;-71
2021/12/22 06:24:29;;;;;;;28.77;19.25;;;-3.40;99.90;;;;;;5126185;27;20679;-72
2021/12/22 06:26:55;;;;;;;;;;;-3.40;99.90;;;;;;5120062;28;20047;-71
2021/12/22 06:29:21;;;;;;;27.15;17.42;;;-3.40;99.90;;;;;;5121487;27;19930;-72
2021/12/22 06:31:46;;;;;;;28.58;17.10;;;-3.40;99.90;;;;;;5118938;28;20068;-71
2021/12/22 06:34:12;;;;;;;32.00;19.67;;;-3.40;99.90;;;;;;5125191;28;20607;-72
2021/12/22 06:36:38;;;;;;;31.08;19.92;;;-3.40;99.90;;;;;;5154831;27;20094;-71
2021/12/22 06:39:04;;;;;;;29.20;19.58;;;-3.30;99.90;;;;;;5158042;27;20047;-75
2021/12/22 06:41:31;;;;;;;28.40;18.05;;;-3.30;99.90;;;;;;5109848;28;20039;-72
2021/12/22 06:43:57;;;;;;;28.23;18.40;;;-3.30;99.90;;;;;;5105502;28;20133;-72
2021/12/22 06:46:22;;;;;;;30.83;19.60;;;-3.30;99.90;;;;;;5122578;27;20514;-73
2021/12/22 06:48:48;;;;;;;29.83;18.88;;;-3.30;99.90;;;;;;5118694;27;20133;-73
2021/12/22 06:51:14;;;;;;;30.42;20.02;;;-3.30;99.90;;;;;;5162510;27;20073;-73
2021/12/22 06:53:40;;;;;;;30.92;18.98;;;-3.30;99.90;;;;;;5130690;27;21190;-72
2021/12/22 06:56:05;;;;;;;33.30;19.75;;;-3.30;99.90;;;;;;5126060;27;20050;-72
2021/12/22 06:58:32;;;;;;;30.80;19.98;;;-3.30;99.90;;;;;;5118416;27;20054;-72
2021/12/22 07:00:58;;;;;;;32.28;20.92;;;-3.40;99.90;;;;;;5123099;27;20131;-72
2021/12/22 07:03:24;;;;;;;32.50;20.55;;;-3.40;99.90;;;;;;5113835;27;20044;-72
2021/12/22 07:05:50;;;;;;;30.45;19.40;;;-3.40;99.90;;;;;;5130819;27;20222;-72
2021/12/22 07:08:15;;;;;;;37.20;21.65;;;-3.40;99.90;;;;;;5128958;27;20047;-72
2021/12/22 07:10:41;;;;;;;35.08;21.00;;;-3.40;99.90;;;;;;5118208;27;20044;-72
2021/12/22 07:13:07;;;;;;;29.90;19.60;;;-3.40;99.90;;;;;;5110219;27;20669;-72
2021/12/22 07:15:33;;;;;;;34.00;20.58;;;-3.40;99.90;;;;;;5120042;27;20047;-73
2021/12/22 07:17:59;;;;;;;32.95;20.35;;;-3.40;99.90;;;;;;5126856;27;20075;-73
2021/12/22 07:20:24;;;;;;;31.67;19.40;;;-3.30;99.90;;;;;;5127748;27;20196;-73
2021/12/22 07:22:50;;;;;;;30.05;19.48;;;-3.30;99.90;;;;;;5119672;27;20047;-72
2021/12/22 07:25:18;;;;;;;33.78;20.48;;;-3.30;99.90;;;;;;5122467;27;20059;-72
2021/12/22 07:27:45;;;;;;;32.15;20.05;;;-3.30;99.90;;;;;;5111678;27;20047;-73
2021/12/22 07:30:11;;;;;;;31.80;20.38;;;-3.30;99.90;;;;;;5112118;27;20371;-73
2021/12/22 07:32:36;;;;;;;31.67;19.52;;;-3.30;99.90;;;;;;5113330;27;20048;-72
2021/12/22 07:35:18;;;;;;;29.70;18.60;;;-3.30;99.90;;;;;;5121301;27;20023;-72
2021/12/22 07:38:30;;;;;;;29.77;19.50;;;-3.30;99.90;;;;;;5112328;27;20043;-72
2021/12/22 07:40:56;;;;;;;31.48;19.58;;;-3.30;99.90;;;;;;5115504;27;20039;-72
2021/12/22 07:43:23;;;;;;;30.25;19.88;;;-3.30;99.90;;;;;;5127548;27;20076;-73
2021/12/22 07:45:49;;;;;;;30.88;19.90;;;-3.30;99.90;;;;;;5120142;27;20049;-72
2021/12/22 07:48:15;;;;;;;33.20;20.88;;;-3.20;99.90;;;;;;5146595;27;20031;-73
2021/12/22 07:50:40;;;;;;;34.03;20.63;;;-3.10;99.90;;;;;;5123839;27;20457;-72
2021/12/22 07:53:07;;;;;;;32.80;20.80;;;-3.10;99.90;;;;;;5116322;27;20122;-73
2021/12/22 07:55:33;;;;;;;36.92;22.45;;;-3.10;99.90;;;;;;5157028;27;20138;-73
2021/12/22 07:57:59;;;;;;;33.88;20.75;;;-3.10;99.90;;;;;;5128710;27;20684;-73
2021/12/22 08:00:25;;;;;;;31.23;19.52;;;-3.10;99.90;;;;;;5124709;27;20367;-72
2021/12/22 08:02:50;;;;;;;36.28;21.30;;;-3.10;99.90;;;;;;5124596;27;20124;-73
2021/12/22 08:05:16;;;;;;;30.90;20.88;;;-3.00;99.90;;;;;;5118322;27;20106;-72
2021/12/22 08:07:41;;;;;;;35.28;22.23;;;-3.00;99.90;;;;;;5118977;27;20112;-72
2021/12/22 08:10:08;;;;;;;33.58;21.77;;;-3.00;99.90;;;;;;5122389;27;20043;-73
2021/12/22 08:12:34;;;;;;;33.80;21.85;;;-2.90;99.90;;;;;;5114675;27;20046;-72
2021/12/22 08:15:01;;;;;;;34.75;21.80;;;-2.90;99.90;;;;;;5116743;27;20125;-72
2021/12/22 08:17:28;;;;;;;37.25;22.67;;;-2.90;99.90;;;;;;5127337;27;20046;-72
2021/12/22 08:19:57;;;;;;;32.92;21.65;;;-2.80;99.90;;;;;;5127412;27;20517;-73
2021/12/22 08:22:22;;;;;;;37.15;22.80;;;-2.80;99.90;;;;;;5115301;27;20039;-71
2021/12/22 08:24:50;;;;;;;35.45;22.02;;;-2.80;99.90;;;;;;5121181;27;20046;-75
2021/12/22 08:27:16;;;;;;;;;;;-2.70;99.90;;;;;;5116880;27;20486;-76
2021/12/22 08:29:44;;;;;;;39.15;21.98;;;-2.80;99.90;;;;;;5120329;27;19965;-75
2021/12/22 08:32:11;;;;;;;40.65;22.83;;;-2.80;99.90;;;;;;5122440;27;20047;-76
2021/12/22 08:34:39;;;;;;;40.03;23.00;;;-2.80;99.90;;;;;;5128099;27;20402;-75
2021/12/22 08:39:51;;;;;;;42.28;23.92;;;-2.70;99.90;;;;;;5113423;27;20071;-73
2021/12/22 08:42:17;;;;;;;40.95;24.02;;;-2.70;99.90;;;;;;5113335;27;20555;-74
2021/12/22 08:44:43;;;;;;;41.03;23.40;;;-2.60;99.90;;;;;;5122967;27;20039;-71
2021/12/22 08:47:09;;;;;;;40.30;24.38;;;-2.60;99.90;;;;;;5125658;27;20138;-72
2021/12/22 08:49:35;;;;;;;40.42;24.58;;;-2.60;99.90;;;;;;5108411;28;20127;-71
2021/12/22 08:52:00;;;;;;;39.72;23.98;;;-2.70;99.90;;;;;;5108219;28;20062;-71
2021/12/22 08:54:26;;;;;;;43.35;23.95;;;-2.60;99.90;;;;;;5113690;27;20073;-75
2021/12/22 08:56:52;;;;;;;43.63;24.25;;;-2.70;99.90;;;;;;5160089;27;20063;-71
2021/12/22 08:59:18;;;;;;;43.85;24.70;;;-2.60;99.90;;;;;;5128959;27;20483;-71
2021/12/22 09:01:44;;;;;;;49.65;25.33;;;-2.60;99.90;;;;;;5127329;27;20058;-72
2021/12/22 09:04:11;;;;;;;52.60;26.70;;;-2.60;99.90;;;;;;5129001;27;20118;-71
2021/12/22 09:06:37;;;;;;;45.60;25.42;;;-2.50;99.90;;;;;;5119735;27;20066;-71
2021/12/22 09:09:05;;;;;;;47.45;26.73;;;-2.50;99.90;;;;;;5126134;27;20036;-71
2021/12/22 09:11:30;;;;;;;44.35;25.73;;;-2.40;99.90;;;;;;5106050;28;20052;-72
2021/12/22 09:13:57;;;;;;;46.13;26.63;;;-2.40;99.90;;;;;;5116837;27;20042;-75
2021/12/22 09:16:23;;;;;;;49.38;26.83;;;-2.30;99.90;;;;;;5123479;27;20035;-74
2021/12/22 09:18:48;;;;;;;47.55;27.83;;;-2.30;99.90;;;;;;5111035;27;20047;-74
2021/12/22 09:21:16;;;;;;;48.30;29.38;;;-2.20;99.90;;;;;;5107538;28;20502;-73
2021/12/22 09:23:42;;;;;;;;;;;-2.20;99.90;;;;;;5107557;27;20082;-73
2021/12/22 09:26:08;;;;;;;51.75;31.15;;;-2.20;99.90;;;;;;5113344;27;20390;-74
2021/12/22 09:28:34;;;;;;;54.50;33.67;;;-2.10;99.90;;;;;;5116280;27;20088;-75
2021/12/22 09:31:00;;;;;;;54.85;35.25;;;-2.20;99.90;;;;;;5115301;27;20525;-73
2021/12/22 09:33:26;;;;;;;54.47;34.47;;;-2.10;99.90;;;;;;5121015;27;20049;-73
2021/12/22 09:35:53;;;;;;;52.25;33.63;;;-2.10;99.90;;;;;;5117587;27;20035;-72
2021/12/22 09:38:19;;;;;;;55.65;38.25;;;-2.10;99.90;;;;;;5112045;27;20173;-72
2021/12/22 09:40:46;;;;;;;57.05;38.70;;;-2.10;99.90;;;;;;5141887;27;20501;-72
2021/12/22 09:43:12;;;;;;;63.92;42.38;;;-2.00;99.90;;;;;;5122330;27;20073;-71
2021/12/22 09:45:43;;;;;;;58.75;39.60;;;-2.00;99.90;;;;;;5118039;27;20108;-71
2021/12/22 09:53:30;;;;;;;49.08;32.42;;;-1.80;99.90;;;;;;5122826;27;20050;-71
2021/12/22 09:56:00;;;;;;;50.95;33.42;;;-1.80;99.90;;;;;;5111613;28;20043;-70
2021/12/22 09:58:27;;;;;;;45.13;30.65;;;-1.80;99.90;;;;;;5108231;28;20047;-70
2021/12/22 10:00:54;;;;;;;46.28;31.00;;;-1.80;99.90;;;;;;5111607;28;20611;-71
2021/12/22 10:03:21;;;;;;;41.77;28.40;;;-1.70;99.90;;;;;;5109685;28;20047;-72
2021/12/22 10:05:47;;;;;;;40.55;25.85;;;-1.70;99.90;;;;;;5115062;28;20289;-72
2021/12/22 10:08:15;;;;;;;41.08;27.73;;;-1.60;99.90;;;;;;5117875;28;20055;-73
2021/12/22 10:10:46;;;;;;;38.95;25.52;;;-1.50;99.90;;;;;;5126707;28;20047;-72
2021/12/22 10:13:11;;;;;;;39.78;25.02;;;-1.50;99.90;;;;;;5123692;28;20466;-74
2021/12/22 10:15:38;;;;;;;37.90;25.00;;;-1.50;99.90;;;;;;5107756;28;20042;-72
2021/12/22 10:18:12;;;;;;;39.65;27.67;;;-1.40;99.90;;;;;;5112007;27;20474;-71
2021/12/22 10:20:39;;;;;;;37.15;26.05;;;-1.40;99.90;;;;;;5112868;28;20040;-72
2021/12/22 10:23:21;;;;;;;49.85;25.33;;;-1.40;99.90;;;;;;5120478;27;20413;-74
2021/12/22 10:25:59;;;;;;;42.70;26.65;;;-1.30;99.90;;;;;;5129067;27;20417;-72
2021/12/22 10:28:28;;;;;;;36.03;23.48;;;-1.30;99.90;;;;;;5126079;27;20704;-72
2021/12/22 10:30:56;;;;;;;38.00;24.70;;;-1.30;99.90;;;;;;5113739;27;20039;-72
2021/12/22 10:33:30;;;;;;;35.72;25.75;;;-1.30;99.90;;;;;;5147727;27;20047;-72
2021/12/22 10:36:02;;;;;;;35.42;23.92;;;-1.20;99.90;;;;;;5120496;27;20039;-72
2021/12/22 10:38:31;;;;;;;33.72;25.98;;;-1.10;99.90;;;;;;5111838;27;20046;-72
2021/12/22 10:41:07;;;;;;;32.88;24.27;;;-1.10;99.90;;;;;;5112686;27;20091;-72
2021/12/22 10:43:38;;;;;;;35.63;26.13;;;-1.00;99.90;;;;;;5145900;27;20044;-73
2021/12/22 10:46:05;;;;;;;35.15;26.15;;;-0.90;99.90;;;;;;5110210;28;20043;-72
2021/12/22 10:51:33;;;;;;;31.55;22.25;;;-0.80;99.90;;;;;;5118754;27;20059;-71
2021/12/22 10:54:00;;;;;;;32.53;22.55;;;-0.80;99.90;;;;;;5113291;27;20052;-71
2021/12/22 10:56:29;;;;;;;;;;;-0.80;99.90;;;;;;5131297;27;20040;-71
2021/12/22 10:59:05;;;;;;;32.92;21.15;;;-0.80;99.90;;;;;;5130644;27;20430;-71
2021/12/22 11:01:34;;;;;;;34.05;23.83;;;-0.70;99.90;;;;;;5121223;27;20054;-72
2021/12/22 11:04:04;;;;;;;28.27;22.15;;;-0.70;99.90;;;;;;5159617;27;20677;-73
2021/12/22 11:06:36;;;;;;;32.80;22.67;;;-0.70;99.90;;;;;;5122799;27;20434;-73
2021/12/22 11:09:13;;;;;;;29.80;20.83;;;-0.60;99.90;;;;;;5109462;28;20048;-73
2021/12/22 11:11:47;;;;;;;31.45;22.02;;;-0.60;99.90;;;;;;5109907;27;20110;-71
2021/12/22 11:14:25;;;;;;;30.73;22.50;;;-0.60;99.90;;;;;;5109822;28;20134;-71
2021/12/22 11:17:09;;;;;;;31.33;22.52;;;-0.50;99.90;;;;;;5110337;27;20102;-71
2021/12/22 11:20:01;;;;;;;28.42;22.05;;;-0.50;99.90;;;;;;5113518;27;20556;-71
2021/12/22 11:22:53;;;;;;;29.90;22.60;;;-0.50;99.90;;;;;;5148510;27;20039;-70
2021/12/22 11:25:22;;;;;;;30.27;21.88;;;-0.50;99.90;;;;;;5129750;27;20055;-70
2021/12/22 11:27:53;;;;;;;30.35;21.95;;;-0.40;99.90;;;;;;5130461;27;20117;-70
2021/12/22 11:30:20;;;;;;;29.23;21.80;;;-0.40;99.90;;;;;;5116859;27;20035;-70
2021/12/22 11:32:47;;;;;;;28.25;20.52;;;-0.30;99.90;;;;;;5128778;27;20050;-70
2021/12/22 11:35:14;;;;;;;27.48;21.70;;;-0.30;99.90;;;;;;5110679;27;20047;-70
2021/12/22 11:37:40;;;;;;;30.02;22.02;;;-0.30;99.90;;;;;;5129139;27;20510;-70
2021/12/22 11:40:11;;;;;;;28.35;20.55;;;-0.30;99.90;;;;;;5113590;27;20183;-71
2021/12/22 11:42:40;;;;;;;28.48;21.23;;;-0.30;99.90;;;;;;5143716;27;20044;-70
2021/12/22 11:45:12;;;;;;;28.15;21.25;;;-0.20;99.90;;;;;;5124232;27;20051;-74
2021/12/22 11:47:42;;;;;;;29.10;21.35;;;-0.20;99.90;;;;;;5129130;27;20385;-73
2021/12/22 11:50:18;;;;;;;28.75;20.17;;;-0.20;99.90;;;;;;5109482;28;20066;-74
2021/12/22 11:52:53;;;;;;;27.52;21.23;;;-0.20;99.90;;;;;;5114522;27;20043;-80
2021/12/22 11:55:20;;;;;;;27.13;20.67;;;-0.20;99.90;;;;;;5148085;27;20181;-74
2021/12/22 11:58:13;;;;;;;31.27;21.70;;;-0.20;99.90;;;;;;5149818;27;20047;-77
2021/12/22 12:00:54;;;;;;;28.63;21.73;;;-0.10;99.90;;;;;;5108952;27;20040;-74
2021/12/22 12:03:36;;;;;;;29.35;21.25;;;-0.10;99.90;;;;;;5119774;27;20039;-74
2021/12/22 12:06:09;;;;;;;29.40;20.77;;;-0.10;99.90;;;;;;5108806;27;20048;-74
2021/12/22 12:08:51;;;;;;;27.85;20.25;;;-0.10;99.90;;;;;;5131701;27;20039;-73
2021/12/22 12:11:43;;;;;;;30.98;22.55;;;-0.10;99.90;;;;;;5128788;27;20045;-73
2021/12/22 12:15:25;;;;;;;27.10;20.77;;;-0.10;99.90;;;;;;5128700;27;20130;-73
2021/12/22 12:23:23;;;;;;;28.40;20.95;;;0.00;99.90;;;;;;5125834;27;20294;-73
2021/12/22 12:25:48;;;;;;;29.30;21.75;;;0.00;99.90;;;;;;5119763;27;20151;-71
2021/12/22 12:28:16;;;;;;;27.38;21.42;;;0.00;99.90;;;;;;5115118;27;20051;-73
2021/12/22 12:30:46;;;;;;;27.27;21.38;;;0.00;99.90;;;;;;5107492;27;20047;-73
2021/12/22 12:33:33;;;;;;;27.77;21.40;;;0.10;99.90;;;;;;5152015;27;20055;-73
2021/12/22 12:36:08;;;;;;;28.25;21.70;;;0.10;99.90;;;;;;5113213;27;20035;-73
2021/12/22 12:38:49;;;;;;;26.48;21.20;;;0.10;99.90;;;;;;5127080;27;20085;-74
2021/12/22 12:41:28;;;;;;;25.08;19.83;;;0.10;99.90;;;;;;5123557;27;20039;-73
2021/12/22 12:44:02;;;;;;;24.98;19.98;;;0.10;99.90;;;;;;5116848;27;20054;-73
2021/12/22 12:46:38;;;;;;;26.50;21.30;;;0.20;99.90;;;;;;5128903;27;20123;-73
2021/12/22 12:49:03;;;;;;;26.35;20.05;;;0.20;99.90;;;;;;5112242;27;20035;-74
2021/12/22 12:51:38;;;;;;;24.83;20.33;;;0.20;99.90;;;;;;5148220;27;20050;-74
2021/12/22 12:54:25;;;;;;;26.30;20.63;;;0.20;99.90;;;;;;5110269;27;20152;-74
2021/12/22 12:57:09;;;;;;;24.38;20.17;;;0.20;99.90;;;;;;5111164;27;20085;-73
2021/12/22 12:59:37;;;;;;;24.15;19.30;;;0.30;99.90;;;;;;5144116;27;20059;-74
2021/12/22 13:02:08;;;;;;;24.05;19.75;;;0.30;99.90;;;;;;5124647;27;20051;-74
2021/12/22 13:04:39;;;;;;;25.63;19.65;;;0.30;99.90;;;;;;5124644;27;20054;-74
2021/12/22 13:07:05;;;;;;;23.40;18.85;;;0.30;99.90;;;;;;5125358;27;20134;-74